createdAt,value
2023-04-19T00:00:04.777Z,44.63
2023-04-19T00:01:05.377Z,45.44
2023-04-19T00:02:04.855Z,42.86
2023-04-19T00:03:04.964Z,44.31
2023-04-19T00:04:06.545Z,45.12
2023-04-19T00:05:05.143Z,43.51
2023-04-19T00:06:04.751Z,47.86
2023-04-19T00:07:04.733Z,46.25
2023-04-19T00:08:04.728Z,44.31
2023-04-19T00:09:04.712Z,45.12
2023-04-19T00:10:04.720Z,45.12
2023-04-19T00:11:04.712Z,45.60
2023-04-19T00:12:04.689Z,43.51
2023-04-19T00:13:04.695Z,42.06
2023-04-19T00:14:04.665Z,44.79
2023-04-19T00:15:04.652Z,43.99
2023-04-19T00:16:04.660Z,55.91
2023-04-19T00:17:04.754Z,50.27
2023-04-19T00:18:04.680Z,48.34
2023-04-19T00:19:04.652Z,52.85
2023-04-19T00:20:04.636Z,43.02
2023-04-19T00:21:06.468Z,45.12
2023-04-19T00:23:54.179Z,43.34
2023-04-19T00:24:54.151Z,48.66
2023-04-19T00:25:54.097Z,47.37
2023-04-19T00:26:54.101Z,51.88
2023-04-19T00:27:54.081Z,43.34
2023-04-19T00:28:54.086Z,43.67
2023-04-19T00:29:54.075Z,43.67
2023-04-19T00:30:54.106Z,45.28
2023-04-19T00:31:55.170Z,43.51
2023-04-19T00:32:55.156Z,44.31
2023-04-19T00:33:55.128Z,53.01
2023-04-19T00:34:56.985Z,43.83
2023-04-19T00:35:55.125Z,45.28
2023-04-19T00:36:55.248Z,45.44
2023-04-19T00:37:55.265Z,44.96
2023-04-19T00:38:55.123Z,46.25
2023-04-19T00:39:55.089Z,45.44
2023-04-19T00:40:55.076Z,54.95
2023-04-19T00:41:55.071Z,46.89
2023-04-19T00:42:55.057Z,45.12
2023-04-19T00:43:56.580Z,47.70
2023-04-19T00:44:55.069Z,45.44
2023-04-19T00:45:55.070Z,43.83
2023-04-19T00:46:55.026Z,44.31
2023-04-19T00:47:55.061Z,45.60
2023-04-19T00:48:55.014Z,42.86
2023-04-19T00:49:55.147Z,46.25
2023-04-19T00:50:54.995Z,43.51
2023-04-19T00:51:55.028Z,45.12
2023-04-19T00:52:57.575Z,40.93
2023-04-19T00:53:54.973Z,48.02
2023-04-19T00:54:54.980Z,51.72
2023-04-19T00:55:54.963Z,40.77
2023-04-19T00:56:54.957Z,43.02
2023-04-19T00:57:54.958Z,44.31
2023-04-19T00:58:54.943Z,47.05
2023-04-19T00:59:54.935Z,46.41
2023-04-19T01:00:56.568Z,53.50
2023-04-19T01:01:54.938Z,45.12
2023-04-19T01:02:55.073Z,45.44
2023-04-19T01:03:54.952Z,44.63
2023-04-19T01:04:54.906Z,42.38
2023-04-19T01:05:54.948Z,46.57
2023-04-19T01:06:54.873Z,48.98
2023-04-19T01:07:55.161Z,46.57
2023-04-19T01:08:54.858Z,42.06
2023-04-19T01:09:54.850Z,46.25
2023-04-19T01:10:54.861Z,48.34
2023-04-19T01:11:54.842Z,53.66
2023-04-19T01:12:54.828Z,44.63
2023-04-19T01:13:54.807Z,45.44
2023-04-19T01:14:54.816Z,42.22
2023-04-19T01:15:54.853Z,51.08
2023-04-19T01:16:54.800Z,45.12
2023-04-19T01:17:54.837Z,39.80
2023-04-19T01:18:55.599Z,39.96
2023-04-19T01:19:54.769Z,41.41
2023-04-19T01:20:54.746Z,39.80
2023-04-19T01:21:54.797Z,39.48
2023-04-19T01:22:54.754Z,41.57
2023-04-19T01:23:54.736Z,40.44
2023-04-19T01:24:54.735Z,45.12
2023-04-19T01:25:54.734Z,44.31
2023-04-19T01:26:54.729Z,40.93
2023-04-19T01:27:54.728Z,41.89
2023-04-19T01:28:54.721Z,42.86
2023-04-19T01:29:54.856Z,40.77
2023-04-19T01:30:54.732Z,41.73
2023-04-19T01:31:54.666Z,42.54
2023-04-19T01:32:54.672Z,41.57
2023-04-19T01:33:54.653Z,54.30
2023-04-19T01:34:54.635Z,51.56
2023-04-19T01:35:54.644Z,40.77
2023-04-19T01:36:54.641Z,58.49
2023-04-19T01:37:54.638Z,52.37
2023-04-19T01:38:54.606Z,43.34
2023-04-19T01:39:55.496Z,44.47
2023-04-19T01:40:55.489Z,42.86
2023-04-19T01:41:54.613Z,44.63
2023-04-19T01:42:54.581Z,54.46
2023-04-19T01:43:54.573Z,52.53
2023-04-19T01:44:54.565Z,47.21
2023-04-19T01:45:54.551Z,52.53
2023-04-19T01:46:55.533Z,47.37
2023-04-19T01:47:54.580Z,42.86
2023-04-19T01:48:54.546Z,42.86
2023-04-19T01:49:55.564Z,42.70
2023-04-19T01:50:54.535Z,45.44
2023-04-19T01:51:54.525Z,58.65
2023-04-19T01:52:54.518Z,43.67
2023-04-19T01:53:54.504Z,44.63
2023-04-19T01:54:54.497Z,48.98
2023-04-19T01:55:54.489Z,42.54
2023-04-19T01:56:54.480Z,44.15
2023-04-19T01:57:54.669Z,48.82
2023-04-19T01:58:55.463Z,45.60
2023-04-19T01:59:54.456Z,44.79
2023-04-19T02:00:54.503Z,44.63
2023-04-19T02:01:54.465Z,48.18
2023-04-19T02:02:54.522Z,42.70
2023-04-19T02:03:54.589Z,42.86
2023-04-19T02:04:55.406Z,44.15
2023-04-19T02:05:54.412Z,46.73
2023-04-19T02:06:54.417Z,48.66
2023-04-19T02:07:54.402Z,45.12
2023-04-19T02:08:54.377Z,44.47
2023-04-19T02:09:54.382Z,47.05
2023-04-19T02:10:54.382Z,43.02
2023-04-19T02:11:54.360Z,43.02
2023-04-19T02:12:54.355Z,53.01
2023-04-19T02:13:54.342Z,51.24
2023-04-19T02:14:54.344Z,45.44
2023-04-19T02:15:54.410Z,48.02
2023-04-19T02:16:54.408Z,53.98
2023-04-19T02:17:54.345Z,51.56
2023-04-19T02:18:54.340Z,46.41
2023-04-19T02:19:54.297Z,44.96
2023-04-19T02:20:54.287Z,46.08
2023-04-19T02:21:54.280Z,46.57
2023-04-19T02:22:54.271Z,44.79
2023-04-19T02:23:54.263Z,49.15
2023-04-19T02:24:54.269Z,50.27
2023-04-19T02:25:54.259Z,43.51
2023-04-19T02:26:54.247Z,48.66
2023-04-19T02:27:54.232Z,47.86
2023-04-19T02:28:54.217Z,51.88
2023-04-19T02:29:54.215Z,48.66
2023-04-19T02:30:54.230Z,45.60
2023-04-19T02:31:54.258Z,47.37
2023-04-19T02:32:54.220Z,44.63
2023-04-19T02:33:54.220Z,44.63
2023-04-19T02:34:54.177Z,47.37
2023-04-19T02:35:54.156Z,54.95
2023-04-19T02:36:54.160Z,49.15
2023-04-19T02:37:55.014Z,53.66
2023-04-19T02:38:54.156Z,44.47
2023-04-19T02:39:54.141Z,44.47
2023-04-19T02:40:54.135Z,51.72
2023-04-19T02:41:54.117Z,48.66
2023-04-19T02:42:54.126Z,53.17
2023-04-19T02:43:54.128Z,47.70
2023-04-19T02:44:54.125Z,46.08
2023-04-19T02:45:55.116Z,47.53
2023-04-19T02:46:54.097Z,43.99
2023-04-19T02:47:54.094Z,47.21
2023-04-19T02:48:54.057Z,44.47
2023-04-19T02:49:54.051Z,47.21
2023-04-19T02:50:54.051Z,49.15
2023-04-19T02:51:54.031Z,50.92
2023-04-19T02:52:54.031Z,48.66
2023-04-19T02:53:54.010Z,48.34
2023-04-19T02:54:54.011Z,52.69
2023-04-19T02:55:54.003Z,53.66
2023-04-19T02:56:54.001Z,48.82
2023-04-19T02:57:53.989Z,52.21
2023-04-19T02:58:53.971Z,48.98
2023-04-19T02:59:53.982Z,50.76
2023-04-19T03:00:54.657Z,49.47
2023-04-19T03:01:53.953Z,48.34
2023-04-19T03:02:54.081Z,51.24
2023-04-19T03:03:53.995Z,51.08
2023-04-19T03:04:53.933Z,53.17
2023-04-19T03:05:53.930Z,49.47
2023-04-19T03:06:53.950Z,52.37
2023-04-19T03:07:53.897Z,57.20
2023-04-19T03:08:53.909Z,46.73
2023-04-19T03:09:53.892Z,54.95
2023-04-19T03:10:53.868Z,57.85
2023-04-19T03:11:54.517Z,54.79
2023-04-19T03:12:53.872Z,54.95
2023-04-19T03:13:53.857Z,49.47
2023-04-19T03:14:53.866Z,49.47
2023-04-19T03:15:53.866Z,51.40
2023-04-19T03:16:53.829Z,50.92
2023-04-19T03:17:53.895Z,52.37
2023-04-19T03:18:53.822Z,56.40
2023-04-19T03:19:53.795Z,57.52
2023-04-19T03:20:53.800Z,56.40
2023-04-19T03:21:53.806Z,58.65
2023-04-19T03:22:53.780Z,50.11
2023-04-19T03:23:53.791Z,50.27
2023-04-19T03:24:53.769Z,49.79
2023-04-19T03:25:54.516Z,52.37
2023-04-19T03:26:53.750Z,53.98
2023-04-19T03:27:53.734Z,54.95
2023-04-19T03:28:53.765Z,57.52
2023-04-19T03:29:53.837Z,53.17
2023-04-19T03:30:53.753Z,52.69
2023-04-19T03:31:54.529Z,50.60
2023-04-19T03:32:53.711Z,53.82
2023-04-19T03:33:53.699Z,56.72
2023-04-19T03:34:53.676Z,56.24
2023-04-19T03:35:53.653Z,54.14
2023-04-19T03:36:53.667Z,57.52
2023-04-19T03:37:54.517Z,57.52
2023-04-19T03:38:53.656Z,59.78
2023-04-19T03:39:53.630Z,53.50
2023-04-19T03:40:53.614Z,55.43
2023-04-19T03:41:53.624Z,60.10
2023-04-19T03:42:53.621Z,51.08
2023-04-19T03:43:53.606Z,54.79
2023-04-19T03:44:53.604Z,56.88
2023-04-19T03:45:53.603Z,57.85
2023-04-19T03:46:53.567Z,55.59
2023-04-19T03:47:53.618Z,50.92
2023-04-19T03:48:53.562Z,57.20
2023-04-19T03:49:53.578Z,55.11
2023-04-19T03:50:53.547Z,57.04
2023-04-19T03:51:53.551Z,57.36
2023-04-19T03:52:53.533Z,59.14
2023-04-19T03:53:53.547Z,55.91
2023-04-19T03:54:53.520Z,55.91
2023-04-19T03:55:53.528Z,53.98
2023-04-19T03:56:53.526Z,54.46
2023-04-19T03:57:53.492Z,53.66
2023-04-19T03:58:54.014Z,59.78
2023-04-19T03:59:53.502Z,59.62
2023-04-19T04:00:53.470Z,60.26
2023-04-19T04:01:53.478Z,58.97
2023-04-19T04:02:53.646Z,58.01
2023-04-19T04:03:54.267Z,55.91
2023-04-19T04:04:53.609Z,61.55
2023-04-19T04:05:53.440Z,55.59
2023-04-19T04:06:53.412Z,58.01
2023-04-19T04:07:53.413Z,54.95
2023-04-19T04:08:53.403Z,56.72
2023-04-19T04:09:53.385Z,52.21
2023-04-19T04:10:53.397Z,53.01
2023-04-19T04:11:53.404Z,56.88
2023-04-19T04:12:53.371Z,57.20
2023-04-19T04:13:53.352Z,59.30
2023-04-19T04:14:53.359Z,56.07
2023-04-19T04:15:53.413Z,57.52
2023-04-19T04:16:53.353Z,54.62
2023-04-19T04:17:53.434Z,56.07
2023-04-19T04:18:53.389Z,58.01
2023-04-19T04:19:53.328Z,58.65
2023-04-19T04:20:53.300Z,60.59
2023-04-19T04:21:54.015Z,54.79
2023-04-19T04:22:53.290Z,59.14
2023-04-19T04:23:53.337Z,58.17
2023-04-19T04:24:53.278Z,56.24
2023-04-19T04:25:53.259Z,58.81
2023-04-19T04:26:55.129Z,58.17
2023-04-19T04:27:53.243Z,59.94
2023-04-19T04:28:53.240Z,60.10
2023-04-19T04:29:53.233Z,61.87
2023-04-19T04:30:53.217Z,60.59
2023-04-19T04:31:53.275Z,60.42
2023-04-19T04:32:53.286Z,58.65
2023-04-19T04:33:53.336Z,56.88
2023-04-19T04:34:53.227Z,60.26
2023-04-19T04:35:53.210Z,57.69
2023-04-19T04:36:53.214Z,58.97
2023-04-19T04:37:53.211Z,61.71
2023-04-19T04:38:53.187Z,58.81
2023-04-19T04:39:53.188Z,58.81
2023-04-19T04:40:54.059Z,59.62
2023-04-19T04:41:53.233Z,59.30
2023-04-19T04:42:53.148Z,61.71
2023-04-19T04:44:08.242Z,59.62
2023-04-19T04:44:55.126Z,60.42
2023-04-19T04:45:54.151Z,61.39
2023-04-19T04:46:53.657Z,60.26
2023-04-19T04:47:53.134Z,57.20
2023-04-19T04:48:53.098Z,60.10
2023-04-19T04:49:53.217Z,63.33
2023-04-19T04:50:55.044Z,58.49
2023-04-19T04:51:53.085Z,59.78
2023-04-19T04:52:53.088Z,59.94
2023-04-19T04:53:53.109Z,60.42
2023-04-19T04:54:53.068Z,61.55
2023-04-19T04:55:53.062Z,60.59
2023-04-19T04:56:53.077Z,62.68
2023-04-19T04:57:53.052Z,62.68
2023-04-19T04:58:53.042Z,61.87
2023-04-19T04:59:53.043Z,61.55
2023-04-19T05:00:53.072Z,64.29
2023-04-19T05:01:52.992Z,61.23
2023-04-19T05:02:53.138Z,60.10
2023-04-19T05:03:53.020Z,61.71
2023-04-19T05:04:54.548Z,61.71
2023-04-19T05:05:52.982Z,58.65
2023-04-19T05:06:52.968Z,59.62
2023-04-19T05:07:52.957Z,60.42
2023-04-19T05:08:54.633Z,59.14
2023-04-19T05:09:52.951Z,58.81
2023-04-19T05:10:52.916Z,59.46
2023-04-19T05:11:53.933Z,61.07
2023-04-19T05:12:53.550Z,63.16
2023-04-19T05:13:52.906Z,62.04
2023-04-19T05:14:52.943Z,60.91
2023-04-19T05:15:54.732Z,62.84
2023-04-19T05:16:58.588Z,59.94
2023-04-19T05:17:52.901Z,60.91
2023-04-19T05:18:52.865Z,62.20
2023-04-19T05:19:53.667Z,60.42
2023-04-19T05:20:52.846Z,60.10
2023-04-19T05:21:52.870Z,59.46
2023-04-19T05:22:52.850Z,63.49
2023-04-19T05:23:52.834Z,62.84
2023-04-19T05:24:52.834Z,63.65
2023-04-19T05:25:52.813Z,65.26
2023-04-19T05:26:52.839Z,59.78
2023-04-19T05:27:53.801Z,63.00
2023-04-19T05:28:52.780Z,63.97
2023-04-19T05:29:54.557Z,59.30
2023-04-19T05:30:55.597Z,62.52
2023-04-19T05:31:52.825Z,62.84
2023-04-19T05:32:52.874Z,63.00
2023-04-19T05:33:52.773Z,64.78
2023-04-19T05:34:54.575Z,61.55
2023-04-19T05:35:52.741Z,61.71
2023-04-19T05:36:54.561Z,68.32
2023-04-19T05:37:53.729Z,61.87
2023-04-19T05:38:52.751Z,61.87
2023-04-19T05:39:52.709Z,60.75
2023-04-19T05:40:52.702Z,58.97
2023-04-19T05:41:52.688Z,62.36
2023-04-19T05:42:52.679Z,63.81
2023-04-19T05:43:52.731Z,60.59
2023-04-19T05:44:52.658Z,61.23
2023-04-19T05:45:53.591Z,64.94
2023-04-19T05:46:52.672Z,61.23
2023-04-19T05:47:53.409Z,61.55
2023-04-19T05:48:54.144Z,60.10
2023-04-19T05:49:54.146Z,62.36
2023-04-19T05:50:52.647Z,61.07
2023-04-19T05:51:55.083Z,63.33
2023-04-19T05:52:52.611Z,61.55
2023-04-19T05:53:56.655Z,60.10
2023-04-19T05:54:55.559Z,61.71
2023-04-19T05:55:55.588Z,63.97
2023-04-19T05:56:52.567Z,64.13
2023-04-19T05:57:54.202Z,64.61
2023-04-19T05:59:27.128Z,64.29
2023-04-19T05:59:52.584Z,64.61
2023-04-19T06:00:52.575Z,63.81
2023-04-19T06:01:52.526Z,61.23
2023-04-19T06:02:52.701Z,61.87
2023-04-19T06:03:52.957Z,59.46
2023-04-19T06:04:53.250Z,58.49
2023-04-19T06:05:52.522Z,60.75
2023-04-19T06:06:52.476Z,59.14
2023-04-19T06:07:55.639Z,61.23
2023-04-19T06:08:55.113Z,60.91
2023-04-19T06:09:53.542Z,62.52
2023-04-19T06:10:57.117Z,61.23
2023-04-19T06:11:54.464Z,65.26
2023-04-19T06:12:52.440Z,59.30
2023-04-19T06:13:52.697Z,60.91
2023-04-19T06:14:52.461Z,60.26
2023-04-19T06:15:52.499Z,62.04
2023-04-19T06:16:52.406Z,60.75
2023-04-19T06:17:52.412Z,61.55
2023-04-19T06:18:52.402Z,61.39
2023-04-19T06:19:52.380Z,60.10
2023-04-19T06:20:52.435Z,62.20
2023-04-19T06:21:52.478Z,64.61
2023-04-19T06:22:52.370Z,64.45
2023-04-19T06:23:52.349Z,62.20
2023-04-19T06:24:52.390Z,62.04
2023-04-19T06:25:52.353Z,61.71
2023-04-19T06:26:52.325Z,60.10
2023-04-19T06:27:52.336Z,58.97
2023-04-19T06:28:52.314Z,60.42
2023-04-19T06:29:52.348Z,60.75
2023-04-19T06:30:53.203Z,60.75
2023-04-19T06:31:52.332Z,60.10
2023-04-19T06:32:52.305Z,62.20
2023-04-19T06:33:52.267Z,59.94
2023-04-19T06:34:52.270Z,58.81
2023-04-19T06:35:52.247Z,60.10
2023-04-19T06:36:53.109Z,60.10
2023-04-19T06:37:52.275Z,61.55
2023-04-19T06:38:52.237Z,60.59
2023-04-19T06:39:52.227Z,60.42
2023-04-19T06:40:52.311Z,60.91
2023-04-19T06:41:52.231Z,60.91
2023-04-19T06:42:52.218Z,62.84
2023-04-19T06:43:52.208Z,62.20
2023-04-19T06:44:52.189Z,61.71
2023-04-19T06:45:52.209Z,60.10
2023-04-19T06:46:52.180Z,59.14
2023-04-19T06:47:53.332Z,60.10
2023-04-19T06:48:52.203Z,61.55
2023-04-19T06:49:52.158Z,60.91
2023-04-19T06:50:52.137Z,62.52
2023-04-19T06:51:52.164Z,59.94
2023-04-19T06:52:52.142Z,60.10
2023-04-19T06:53:52.693Z,60.91
2023-04-19T06:54:52.123Z,61.71
2023-04-19T06:55:52.130Z,59.78
2023-04-19T06:56:52.119Z,60.42
2023-04-19T06:57:52.120Z,61.07
2023-04-19T06:58:52.100Z,58.81
2023-04-19T06:59:53.277Z,64.45
2023-04-19T07:00:52.061Z,62.84
2023-04-19T07:01:52.757Z,61.23
2023-04-19T07:02:52.196Z,62.84
2023-04-19T07:03:53.105Z,61.55
2023-04-19T07:04:52.570Z,59.94
2023-04-19T07:05:52.063Z,62.04
2023-04-19T07:06:52.076Z,63.33
2023-04-19T07:07:52.247Z,61.39
2023-04-19T07:08:51.998Z,61.87
2023-04-19T07:09:53.005Z,60.10
2023-04-19T07:10:51.981Z,64.29
2023-04-19T07:11:51.988Z,60.91
2023-04-19T07:12:52.062Z,59.94
2023-04-19T07:13:51.953Z,60.42
2023-04-19T07:14:51.950Z,61.55
2023-04-19T07:15:51.997Z,65.42
2023-04-19T07:16:52.753Z,60.26
2023-04-19T07:17:51.993Z,59.14
2023-04-19T07:18:51.908Z,59.30
2023-04-19T07:19:51.904Z,61.23
2023-04-19T07:20:51.910Z,62.36
2023-04-19T07:21:51.907Z,60.91
2023-04-19T07:22:51.924Z,61.55
2023-04-19T07:23:52.713Z,72.19
2023-04-19T07:24:51.866Z,59.30
2023-04-19T07:25:51.904Z,60.42
2023-04-19T07:26:51.867Z,59.30
2023-04-19T07:27:52.705Z,64.94
2023-04-19T07:28:51.848Z,61.07
2023-04-19T07:29:51.828Z,62.52
2023-04-19T07:30:51.819Z,63.16
2023-04-19T07:31:51.808Z,63.33
2023-04-19T07:32:51.961Z,62.84
2023-04-19T07:33:52.610Z,60.91
2023-04-19T07:34:51.810Z,59.94
2023-04-19T07:35:51.806Z,62.20
2023-04-19T07:36:52.033Z,61.87
2023-04-19T07:37:51.766Z,63.00
2023-04-19T07:38:51.798Z,62.20
2023-04-19T07:39:51.745Z,60.91
2023-04-19T07:40:53.644Z,61.23
2023-04-19T07:41:51.896Z,61.55
2023-04-19T07:42:51.780Z,63.65
2023-04-19T07:43:51.735Z,63.16
2023-04-19T07:44:52.705Z,59.62
2023-04-19T07:45:51.726Z,58.81
2023-04-19T07:46:51.793Z,58.97
2023-04-19T07:47:53.391Z,59.62
2023-04-19T07:48:51.697Z,60.91
2023-04-19T07:49:51.675Z,59.14
2023-04-19T07:50:51.677Z,60.26
2023-04-19T07:51:51.660Z,64.94
2023-04-19T07:52:51.654Z,62.04
2023-04-19T07:53:51.634Z,57.69
2023-04-19T07:54:51.657Z,60.10
2023-04-19T07:55:51.664Z,60.59
2023-04-19T07:56:51.690Z,63.16
2023-04-19T07:57:51.623Z,61.23
2023-04-19T07:59:04.157Z,64.61
2023-04-19T07:59:53.664Z,65.58
2023-04-19T08:00:51.684Z,61.55
2023-04-19T08:01:51.632Z,59.94
2023-04-19T08:02:51.766Z,61.39
2023-04-19T08:03:51.857Z,59.78
2023-04-19T08:04:53.040Z,61.55
2023-04-19T08:05:51.675Z,59.14
2023-04-19T08:06:52.151Z,61.55
2023-04-19T08:07:51.599Z,60.26
2023-04-19T08:08:51.525Z,59.78
2023-04-19T08:09:51.538Z,60.59
2023-04-19T08:10:51.543Z,60.91
2023-04-19T08:11:51.542Z,56.88
2023-04-19T08:13:05.394Z,60.91
2023-04-19T08:14:04.650Z,62.20
2023-04-19T08:15:02.644Z,58.33
2023-04-19T08:17:52.518Z,60.42
2023-04-19T08:18:51.495Z,56.56
2023-04-19T08:19:51.456Z,59.14
2023-04-19T08:20:51.433Z,59.78
2023-04-19T08:21:51.450Z,59.46
2023-04-19T08:22:51.453Z,60.26
2023-04-19T08:23:53.570Z,61.55
2023-04-19T08:24:52.404Z,59.94
2023-04-19T08:25:51.470Z,63.65
2023-04-19T08:26:51.393Z,57.85
2023-04-19T08:27:51.374Z,60.91
2023-04-19T08:28:51.366Z,60.42
2023-04-19T08:29:51.404Z,60.26
2023-04-19T08:30:52.221Z,61.55
2023-04-19T08:31:51.417Z,60.10
2023-04-19T08:32:51.400Z,59.94
2023-04-19T08:33:51.407Z,60.91
2023-04-19T08:34:51.325Z,60.42
2023-04-19T08:35:51.329Z,61.39
2023-04-19T08:37:03.508Z,59.14
2023-04-19T08:37:53.323Z,60.42
2023-04-19T08:39:04.164Z,60.75
2023-04-19T08:39:53.291Z,62.20
2023-04-19T08:40:51.281Z,60.10
2023-04-19T08:42:02.717Z,61.23
2023-04-19T08:42:54.153Z,60.26
2023-04-19T08:43:52.150Z,60.75
2023-04-19T08:45:09.447Z,58.01
2023-04-19T08:45:53.289Z,59.62
2023-04-19T08:46:51.255Z,59.30
2023-04-19T08:48:00.711Z,59.30
2023-04-19T08:48:53.462Z,59.62
2023-04-19T08:50:03.757Z,58.49
2023-04-19T08:51:52.185Z,62.68
2023-04-19T08:52:58.841Z,60.75
2023-04-19T08:53:53.181Z,63.33
2023-04-19T08:54:51.170Z,61.55
2023-04-19T08:56:08.577Z,63.81
2023-04-19T08:56:53.156Z,60.10
2023-04-19T08:57:51.148Z,59.30
2023-04-19T08:59:52.131Z,58.49
2023-04-19T09:00:51.106Z,63.97
2023-04-19T09:01:51.128Z,61.87
2023-04-19T09:02:51.281Z,60.42
2023-04-19T09:04:02.283Z,62.36
2023-04-19T09:04:53.791Z,60.10
2023-04-19T09:05:52.359Z,60.10
2023-04-19T09:06:51.816Z,61.55
2023-04-19T09:07:52.140Z,58.81
2023-04-19T09:08:52.651Z,61.71
2023-04-19T09:10:02.000Z,64.78
2023-04-19T09:10:53.169Z,62.04
2023-04-19T09:11:51.055Z,61.55
2023-04-19T09:12:51.038Z,59.14
2023-04-19T09:13:52.936Z,61.07
2023-04-19T09:15:01.323Z,61.23
2023-04-19T09:15:55.737Z,61.39
2023-04-19T09:16:51.011Z,61.55
2023-04-19T09:17:51.714Z,58.65
2023-04-19T09:18:59.811Z,60.26
2023-04-19T09:19:52.999Z,61.39
2023-04-19T09:20:51.005Z,64.78
2023-04-19T09:21:50.955Z,63.16
2023-04-19T09:22:51.766Z,64.61
2023-04-19T09:23:51.800Z,64.94
2023-04-19T09:26:15.099Z,61.07
2023-04-19T09:26:52.931Z,61.55
2023-04-19T09:27:50.911Z,62.68
2023-04-19T09:28:50.901Z,60.75
2023-04-19T09:29:54.664Z,58.65
2023-04-19T09:31:06.721Z,60.59
2023-04-19T09:31:54.916Z,57.52
2023-04-19T09:32:51.045Z,59.62
2023-04-19T09:33:52.107Z,59.94
2023-04-19T09:34:50.856Z,61.39
2023-04-19T09:35:53.729Z,59.46
2023-04-19T09:37:00.567Z,60.75
2023-04-19T09:38:04.760Z,62.68
2023-04-19T09:38:54.647Z,60.10
2023-04-19T09:39:52.649Z,60.75
2023-04-19T09:40:50.796Z,60.91
2023-04-19T09:41:52.750Z,58.97
2023-04-19T09:45:25.390Z,62.36
2023-04-19T09:45:52.781Z,60.59
2023-04-19T09:46:52.446Z,58.17
2023-04-19T09:47:51.773Z,59.94
2023-04-19T09:48:50.740Z,59.30
2023-04-19T09:49:51.010Z,59.78
2023-04-19T09:50:57.486Z,64.45
2023-04-19T09:51:52.733Z,60.10
2023-04-19T09:52:51.655Z,56.40
2023-04-19T09:53:50.688Z,60.59
2023-04-19T09:54:50.671Z,61.71
2023-04-19T09:56:00.664Z,60.91
2023-04-19T09:56:56.156Z,62.04
2023-04-19T09:57:51.666Z,62.04
2023-04-19T09:58:58.656Z,61.55
2023-04-19T09:59:52.642Z,61.55
2023-04-19T10:00:55.028Z,62.04
2023-04-19T10:01:52.687Z,60.75
2023-04-19T10:02:52.051Z,62.68
2023-04-19T10:03:52.754Z,61.39
2023-04-19T10:05:53.284Z,63.33
2023-04-19T10:07:10.148Z,61.87
2023-04-19T10:07:54.186Z,59.78
2023-04-19T10:08:50.609Z,60.10
2023-04-19T10:09:54.291Z,61.87
2023-04-19T10:10:51.577Z,60.59
2023-04-19T10:11:52.237Z,61.07
2023-04-19T10:13:51.542Z,61.07
2023-04-19T10:14:50.582Z,59.14
2023-04-19T10:15:54.080Z,59.78
2023-04-19T10:16:54.383Z,57.20
2023-04-19T10:17:50.548Z,61.71
2023-04-19T10:18:50.765Z,60.59
2023-04-19T10:19:52.238Z,60.75
2023-04-19T10:20:50.488Z,60.75
2023-04-19T10:21:50.474Z,60.75
2023-04-19T10:22:50.463Z,61.39
2023-04-19T10:23:50.469Z,57.52
2023-04-19T10:24:50.456Z,59.14
2023-04-19T10:25:50.464Z,59.62
2023-04-19T10:26:50.444Z,57.52
2023-04-19T10:27:50.424Z,59.62
2023-04-19T10:28:50.457Z,59.78
2023-04-19T10:29:50.407Z,60.59
2023-04-19T10:30:50.423Z,58.49
2023-04-19T10:31:50.432Z,57.36
2023-04-19T10:32:50.440Z,59.62
2023-04-19T10:33:50.393Z,60.75
2023-04-19T10:34:50.409Z,58.49
2023-04-19T10:35:50.387Z,58.01
2023-04-19T10:36:50.358Z,60.59
2023-04-19T10:37:50.349Z,61.23
2023-04-19T10:38:50.426Z,59.14
2023-04-19T10:39:51.165Z,59.62
2023-04-19T10:40:50.324Z,62.68
2023-04-19T10:41:50.344Z,59.46
2023-04-19T10:42:50.307Z,59.14
2023-04-19T10:43:50.297Z,59.14
2023-04-19T10:44:50.291Z,60.59
2023-04-19T10:45:51.198Z,60.59
2023-04-19T10:46:50.284Z,60.59
2023-04-19T10:47:50.292Z,59.30
2023-04-19T10:48:50.253Z,60.91
2023-04-19T10:49:50.252Z,58.81
2023-04-19T10:50:52.748Z,57.69
2023-04-19T10:51:50.238Z,59.94
2023-04-19T10:52:50.259Z,60.26
2023-04-19T10:53:50.229Z,60.91
2023-04-19T10:54:50.592Z,61.55
2023-04-19T10:55:50.209Z,60.10
2023-04-19T10:56:50.229Z,60.42
2023-04-19T10:57:51.741Z,61.87
2023-04-19T10:58:50.186Z,61.87
2023-04-19T10:59:51.170Z,61.55
2023-04-19T11:00:50.182Z,61.07
2023-04-19T11:01:50.284Z,58.65
2023-04-19T11:02:50.271Z,61.07
2023-04-19T11:03:50.218Z,58.01
2023-04-19T11:04:50.150Z,56.07
2023-04-19T11:05:50.133Z,59.30
2023-04-19T11:06:51.759Z,61.23
2023-04-19T11:07:54.752Z,60.10
2023-04-19T11:08:51.670Z,58.17
2023-04-19T11:09:50.095Z,58.81
2023-04-19T11:10:51.245Z,58.65
2023-04-19T11:11:50.088Z,59.30
2023-04-19T11:12:50.074Z,60.42
2023-04-19T11:13:50.057Z,58.01
2023-04-19T11:14:50.062Z,55.43
2023-04-19T11:15:50.113Z,60.42
2023-04-19T11:16:50.075Z,59.62
2023-04-19T11:18:01.010Z,59.46
2023-04-19T11:18:52.761Z,60.91
2023-04-19T11:19:50.005Z,59.78
2023-04-19T11:20:50.041Z,59.94
2023-04-19T11:21:49.991Z,61.07
2023-04-19T11:22:50.050Z,61.55
2023-04-19T11:23:49.989Z,61.23
2023-04-19T11:24:50.025Z,61.55
2023-04-19T11:25:49.965Z,63.16
2023-04-19T11:26:49.975Z,59.14
2023-04-19T11:27:50.023Z,61.39
2023-04-19T11:28:49.936Z,61.23
2023-04-19T11:29:50.979Z,65.58
2023-04-19T11:30:49.922Z,64.78
2023-04-19T11:31:51.804Z,60.26
2023-04-19T11:32:51.504Z,63.49
2023-04-19T11:33:49.908Z,59.46
2023-04-19T11:34:49.896Z,59.94
2023-04-19T11:35:49.885Z,59.62
2023-04-19T11:36:51.674Z,62.04
2023-04-19T11:37:49.893Z,63.33
2023-04-19T11:38:57.745Z,57.36
2023-04-19T11:39:52.500Z,58.65
2023-04-19T11:40:50.844Z,59.30
2023-04-19T11:41:50.641Z,59.78
2023-04-19T11:42:50.856Z,60.42
2023-04-19T11:43:49.836Z,60.75
2023-04-19T11:44:49.825Z,59.14
2023-04-19T11:45:49.819Z,60.42
2023-04-19T11:46:49.851Z,60.10
2023-04-19T11:47:49.907Z,60.75
2023-04-19T11:48:49.793Z,60.26
2023-04-19T11:49:49.808Z,60.10
2023-04-19T11:50:49.769Z,61.39
2023-04-19T11:51:49.782Z,63.00
2023-04-19T11:52:49.771Z,61.87
2023-04-19T11:53:49.798Z,62.20
2023-04-19T11:54:49.744Z,60.10
2023-04-19T11:55:49.750Z,61.87
2023-04-19T11:56:49.739Z,62.84
2023-04-19T11:57:50.708Z,62.84
2023-04-19T11:58:49.753Z,61.71
2023-04-19T11:59:49.702Z,64.13
2023-04-19T12:00:49.704Z,63.65
2023-04-19T12:01:49.719Z,61.07
2023-04-19T12:02:49.852Z,61.07
2023-04-19T12:03:49.934Z,60.10
2023-04-19T12:04:49.778Z,62.20
2023-04-19T12:05:51.294Z,61.87
2023-04-19T12:06:50.183Z,64.61
2023-04-19T12:07:49.652Z,62.36
2023-04-19T12:08:49.648Z,59.78
2023-04-19T12:09:49.664Z,61.23
2023-04-19T12:10:49.613Z,59.62
2023-04-19T12:11:49.613Z,59.14
2023-04-19T12:12:49.598Z,59.30
2023-04-19T12:13:49.594Z,61.07
2023-04-19T12:14:49.580Z,58.17
2023-04-19T12:15:49.584Z,61.71
2023-04-19T12:16:49.630Z,60.75
2023-04-19T12:17:56.898Z,58.81
2023-04-19T12:18:52.196Z,59.78
2023-04-19T12:19:49.543Z,60.91
2023-04-19T12:20:53.180Z,62.52
2023-04-19T12:21:49.597Z,59.30
2023-04-19T12:22:49.533Z,60.10
2023-04-19T12:23:49.541Z,62.84
2023-04-19T12:24:49.494Z,60.10
2023-04-19T12:25:50.506Z,59.78
2023-04-19T12:26:49.500Z,61.71
2023-04-19T12:27:49.497Z,60.75
2023-04-19T12:28:49.466Z,61.23
2023-04-19T12:29:49.479Z,59.94
2023-04-19T12:30:49.478Z,62.20
2023-04-19T12:31:49.543Z,59.62
2023-04-19T12:32:49.481Z,60.59
2023-04-19T12:33:49.435Z,59.78
2023-04-19T12:34:49.429Z,61.07
2023-04-19T12:35:49.423Z,59.46
2023-04-19T12:36:49.420Z,59.94
2023-04-19T12:37:49.422Z,63.65
2023-04-19T12:38:49.403Z,62.04
2023-04-19T12:39:49.383Z,60.75
2023-04-19T12:40:49.378Z,59.78
2023-04-19T12:41:49.374Z,59.62
2023-04-19T12:42:49.378Z,60.10
2023-04-19T12:43:49.357Z,60.26
2023-04-19T12:44:49.354Z,63.49
2023-04-19T12:45:49.356Z,60.42
2023-04-19T12:46:50.284Z,60.10
2023-04-19T12:47:49.371Z,60.42
2023-04-19T12:48:49.320Z,58.97
2023-04-19T12:49:49.339Z,60.42
2023-04-19T12:50:49.305Z,61.87
2023-04-19T12:51:49.330Z,59.94
2023-04-19T12:52:51.277Z,59.30
2023-04-19T12:53:49.264Z,59.14
2023-04-19T12:54:50.695Z,59.78
2023-04-19T12:55:50.198Z,60.91
2023-04-19T12:56:49.261Z,64.78
2023-04-19T12:57:49.265Z,63.65
2023-04-19T12:58:49.272Z,60.42
2023-04-19T12:59:49.245Z,60.59
2023-04-19T13:00:49.252Z,60.91
2023-04-19T13:01:50.518Z,59.30
2023-04-19T13:02:50.279Z,61.71